Brilliance Of The Seas — C6SJ5 — position and weather

sailwx.info

Track history (hours):
 
Tides and Currents Weather Stations Pressure Air Temp Water Temp Dewpoint Dewpoint Depression Visibility Wind Speed Wind Dir Waves Ship Positions

Brilliance Of The Seas

Operator: Royal Caribbean Cruises Ltd

Last reported at 2019-Jul-20 14:00 UTC. Time now 2019-Jul-20 14:06 UTC.
Position N 56°00' W 003°23'.

Type: Ship. MMSI: 311361000.

Date/timePositionNaut miles runAvg speedWind from/ knotsBaromVisibWave heightAir tempDewpointWater temp
2019-Jul-20 14:00N 56°00' W 003°23'0 0.0
2019-Jul-20 13:30N 56°00' W 003°23'0 0.1
2019-Jul-20 12:54N 56°00' W 003°22'0 0.0
2019-Jul-20 12:30N 56°00' W 003°22'0 0.0
2019-Jul-20 11:54N 56°00' W 003°22'0 0.0
2019-Jul-20 10:42N 56°00' W 003°22'0 0.0
2019-Jul-20 09:54N 56°00' W 003°22'0 0.0
2019-Jul-20 09:24N 56°00' W 003°22'0 0.0
2019-Jul-20 08:54N 56°00' W 003°22'0 0.0
2019-Jul-20 05:37N 56°00' W 003°22'2 6.2
2019-Jul-20 05:21N 56°01' W 003°20'513.0
2019-Jul-20 04:57N 56°03' W 003°11'613.1
2019-Jul-20 04:31N 56°04' W 003°00'5 9.4
2019-Jul-20 04:01N 56°05' W 002°53'5 9.7
2019-Jul-20 03:30N 56°07' W 002°44'5 9.7
2019-Jul-20 03:01N 56°07' W 002°36'5 9.7
2019-Jul-20 02:31N 56°06' W 002°27'5 9.2
2019-Jul-20 02:01N 56°04' W 002°19'5 9.1
2019-Jul-20 01:26N 56°03' W 002°11'4 9.2
2019-Jul-20 00:59N 56°01' W 002°04'5 9.5
2019-Jul-20 00:31N 55°58' W 001°57'5 9.8
2019-Jul-20 00:01N 55°55' W 001°51'5 9.8
2019-Jul-19 23:30N 55°52' W 001°44'510.0
2019-Jul-19 23:01N 55°49' W 001°37'5 9.6
2019-Jul-19 22:30N 55°46' W 001°30'5 9.8
2019-Jul-19 22:00N 55°43' W 001°24'510.2
2019-Jul-19 21:31N 55°39' W 001°17'5 9.9
2019-Jul-19 20:59N 55°36' W 001°10'12410.2
2019-Jul-19 08:54N 54°16' E 001°34'410.3
2019-Jul-19 08:30N 54°14' E 001°40'510.2
2019-Jul-19 08:00N 54°10' E 001°46'8 9.9
2019-Jul-19 07:09N 54°05' E 001°57'6010.2
2019-Jul-19 01:14N 53°24' E 003°12'611.0
2019-Jul-19 00:43N 53°19' E 003°18'310.8
2019-Jul-19 00:29N 53°17' E 003°20'610.6
2019-Jul-18 23:56N 53°13' E 003°26'510.5
2019-Jul-18 23:29N 53°09' E 003°31'1310.2
2019-Jul-18 22:15N 52°58' E 003°43'2310.0
2019-Jul-18 19:55N 52°39' E 004°03'510.5
2019-Jul-18 19:28N 52°34' E 004°07'510.1
2019-Jul-18 19:00N 52°31' E 004°13'510.3
2019-Jul-18 18:30N 52°30' E 004°21'5 9.7
2019-Jul-18 18:00N 52°29' E 004°28'5 9.7
2019-Jul-18 17:30N 52°28' E 004°36'0 0.5
2019-Jul-18 17:00N 52°28' E 004°37'2 4.5
2019-Jul-18 16:30N 52°28' E 004°40'4 7.7
2019-Jul-18 16:01N 52°26' E 004°46'4 7.8
2019-Jul-18 15:31N 52°25' E 004°52'3 5.4
2019-Jul-18 15:00N 52°23' E 004°55'0 0.0
2019-Jul-18 14:29N 52°23' E 004°55'0 0.0
2019-Jul-18 13:59N 52°23' E 004°55'0 0.0
2019-Jul-18 13:29N 52°23' E 004°55'0 0.0
2019-Jul-18 12:59N 52°23' E 004°55'0 0.0
2019-Jul-18 12:29N 52°23' E 004°55'0 0.0
2019-Jul-18 11:59N 52°23' E 004°55'0 0.0
2019-Jul-18 11:29N 52°23' E 004°55'0 0.0
2019-Jul-18 10:59N 52°23' E 004°55'0 0.0
2019-Jul-18 10:29N 52°23' E 004°55'0 0.0
2019-Jul-18 09:59N 52°23' E 004°55'0 0.0
2019-Jul-18 09:29N 52°23' E 004°55'0 0.0
2019-Jul-18 08:59N 52°23' E 004°55'0 0.0
2019-Jul-18 08:29N 52°23' E 004°55'0 0.0
2019-Jul-18 07:59N 52°23' E 004°55'0 0.0
2019-Jul-18 07:29N 52°23' E 004°55'0 0.0
2019-Jul-18 06:59N 52°23' E 004°55'0 0.0
2019-Jul-18 06:29N 52°23' E 004°55'0 0.0
2019-Jul-18 05:59N 52°23' E 004°55'0 0.0
2019-Jul-18 05:29N 52°23' E 004°55'0 0.0
2019-Jul-18 04:59N 52°23' E 004°55'0 0.0
2019-Jul-18 04:29N 52°23' E 004°55'0 0.0
2019-Jul-18 03:59N 52°23' E 004°55'0 0.0
2019-Jul-18 03:30N 52°23' E 004°55'0 0.6
2019-Jul-18 03:00N 52°23' E 004°55'2 4.5
2019-Jul-18 02:31N 52°24' E 004°53'4 7.6
2019-Jul-18 02:01N 52°26' E 004°47'3 5.9
2019-Jul-18 01:31N 52°26' E 004°42'3 6.8
2019-Jul-18 01:01N 52°28' E 004°37'0 0.8
2019-Jul-18 00:30N 52°28' E 004°36'3 5.2
2019-Jul-18 00:01N 52°28' E 004°32'612.0
2019-Jul-17 23:31N 52°29' E 004°22'510.9
2019-Jul-17 23:01N 52°29' E 004°13'511.0
2019-Jul-17 22:31N 52°33' E 004°07'612.3
2019-Jul-17 22:00N 52°38' E 004°03'11512.7
2019-Jul-17 13:00N 54°24' E 005°18'11414.5 190 / 141016.510.8 16.0
2019-Jul-17 05:08N 56°02' E 006°60'913.8
2019-Jul-17 04:29N 56°10' E 007°08'813.9
2019-Jul-17 03:56N 56°16' E 007°15'713.9
2019-Jul-17 03:26N 56°22' E 007°22'713.9
2019-Jul-17 02:56N 56°28' E 007°28'613.8
2019-Jul-17 02:30N 56°33' E 007°34'713.7
2019-Jul-17 02:01N 56°39' E 007°40'713.8
2019-Jul-17 01:30N 56°45' E 007°47'714.0
2019-Jul-17 01:00N 56°51' E 007°53'4404.4
2019-Jul-17 01:00N 56°48' E 007°48'1122.9 290 / 151016.510.8 13.0
2019-Jul-17 00:30N 56°57' E 008°00'714.7
2019-Jul-17 00:00N 57°03' E 008°07'815.2
2019-Jul-16 23:30N 57°10' E 008°15'714.9
2019-Jul-16 23:00N 57°16' E 008°23'714.8
2019-Jul-16 22:31N 57°20' E 008°33'714.9
2019-Jul-16 22:01N 57°26' E 008°43'714.7
2019-Jul-16 21:30N 57°30' E 008°54'714.6
2019-Jul-16 21:00N 57°34' E 009°05'714.5
2019-Jul-16 20:31N 57°39' E 009°16'714.8
2019-Jul-16 20:00N 57°42' E 009°28'714.7
2019-Jul-16 19:30N 57°45' E 009°41'714.8
2019-Jul-16 19:01N 57°47' E 009°54'715.0
2019-Jul-16 18:31N 57°49' E 010°08'714.4
2019-Jul-16 18:00N 57°50' E 010°21'714.5
2019-Jul-16 17:30N 57°52' E 010°34'713.7
2019-Jul-16 17:00N 57°48' E 010°46'611.4
2019-Jul-16 16:31N 57°43' E 010°43'4 8.5
2019-Jul-16 16:01N 57°43' E 010°35'0 0.4
2019-Jul-16 15:30N 57°43' E 010°35'0 0.0
2019-Jul-16 15:00N 57°43' E 010°35'0 0.0
2019-Jul-16 14:27N 57°43' E 010°35'0 0.0
2019-Jul-16 14:00N 57°43' E 010°35'0 0.0
2019-Jul-16 13:30N 57°43' E 010°35'0 0.0
2019-Jul-16 13:01N 57°43' E 010°35'0 0.0
2019-Jul-16 12:31N 57°43' E 010°35'0 0.0
2019-Jul-16 12:00N 57°43' E 010°35'0 0.0
2019-Jul-16 11:31N 57°43' E 010°35'0 0.0
2019-Jul-16 11:01N 57°43' E 010°35'0 0.0
2019-Jul-16 10:30N 57°43' E 010°35'0 0.0
2019-Jul-16 10:01N 57°43' E 010°35'0 0.0
2019-Jul-16 09:30N 57°43' E 010°35'0 0.0
2019-Jul-16 09:00N 57°43' E 010°35'0 0.0
2019-Jul-16 08:31N 57°43' E 010°35'0 0.0
2019-Jul-16 08:01N 57°43' E 010°35'0 0.0
2019-Jul-16 07:24N 57°43' E 010°35'0 0.0
2019-Jul-16 07:00N 57°43' E 010°35'0 0.0
2019-Jul-16 06:27N 57°43' E 010°35'0 0.0
2019-Jul-16 06:00N 57°43' E 010°35'11 9.5
2019-Jul-16 04:52N 57°40' E 010°55'617.7
2019-Jul-16 04:31N 57°38' E 011°06'918.2
2019-Jul-16 04:00N 57°33' E 011°20'918.2
2019-Jul-16 03:30N 57°25' E 011°30'917.8
2019-Jul-16 03:01N 57°17' E 011°35'917.2
2019-Jul-16 02:30N 57°09' E 011°40'917.7
2019-Jul-16 02:00N 57°00' E 011°46'5417.1
2019-Jul-15 22:51N 56°09' E 011°15'718.7
2019-Jul-15 22:29N 56°04' E 011°08'4416.9
2019-Jul-15 19:51N 55°19' E 011°03'1818.4
2019-Jul-15 18:52N 55°01' E 011°02'718.9
2019-Jul-15 18:30N 54°55' E 010°56'918.6
2019-Jul-15 18:00N 54°46' E 010°53'816.5
2019-Jul-15 17:31N 54°40' E 011°01'918.7
2019-Jul-15 17:01N 54°35' E 011°15'1019.3
2019-Jul-15 16:31N 54°31' E 011°30'1018.5
2019-Jul-15 16:00N 54°27' E 011°45'918.6
2019-Jul-15 15:29N 54°26' E 012°01'816.8
2019-Jul-15 15:00N 54°30' E 012°13'1019.7
2019-Jul-15 14:30N 54°39' E 012°19'1018.8
2019-Jul-15 13:58N 54°45' E 012°33'918.4
2019-Jul-15 13:30N 54°49' E 012°46'918.5
2019-Jul-15 13:00N 54°52' E 013°01'1122.2
2019-Jul-15 12:30N 54°56' E 013°19'1622.6
2019-Jul-15 11:49N 55°02' E 013°44'2521.6
2019-Jul-15 10:39N 55°16' E 014°21'1222.3
2019-Jul-15 10:07N 55°25' E 014°35'1 8.6
2019-Jul-15 10:00N 55°24' E 014°36'3301.8 230 / 20 10.8 17.014.914.0
2019-Jul-15 09:59N 55°27' E 014°39'1122.3
2019-Jul-15 09:30N 55°33' E 014°54'9221.9
2019-Jul-15 05:19N 56°26' E 017°07'1149265.3
2019-Jul-15 01:00N 57°54' W 018°06'11611195.1 260 / 201013.510.8 17.0
2019-Jul-15 00:01N 58°19' E 018°31'622.9
2019-Jul-14 23:47N 58°24' E 018°36'8920.4
2019-Jul-14 19:24N 59°47' E 019°39'917.3
2019-Jul-14 18:53N 59°46' E 019°21'614.6
2019-Jul-14 18:29N 59°44' E 019°11'815.8
2019-Jul-14 17:57N 59°40' E 018°56'410.2
2019-Jul-14 17:30N 59°37' E 018°49'612.0
2019-Jul-14 17:00N 59°34' E 018°38'7 9.8
2019-Jul-14 16:14N 59°29' E 018°27'521.7
2019-Jul-14 16:00N 59°24' E 018°24'3285.8 130 / 31009.510.8 21.7 7.212.7
2019-Jul-14 15:59N 59°27' E 018°24'4 8.9
2019-Jul-14 15:30N 59°22' E 018°27'3 6.2
2019-Jul-14 15:00N 59°22' E 018°21'611.2
2019-Jul-14 14:30N 59°20' E 018°11'3 4.9
2019-Jul-14 13:59N 59°19' E 018°06'0 0.0
2019-Jul-14 13:29N 59°19' E 018°06'0 0.0
2019-Jul-14 12:59N 59°19' E 018°06'0 0.0
2019-Jul-14 12:29N 59°19' E 018°06'0 0.0
2019-Jul-14 11:59N 59°19' E 018°06'0 0.0
2019-Jul-14 11:29N 59°19' E 018°06'0 0.0
2019-Jul-14 10:59N 59°19' E 018°06'0 0.0
2019-Jul-14 10:29N 59°19' E 018°06'0 0.0
2019-Jul-14 09:59N 59°19' E 018°06'0 0.0
2019-Jul-14 09:29N 59°19' E 018°06'0 0.0
2019-Jul-14 08:59N 59°19' E 018°06'0 0.0
2019-Jul-14 08:29N 59°19' E 018°06'0 0.0
2019-Jul-14 07:59N 59°19' E 018°06'0 0.0
2019-Jul-14 07:29N 59°19' E 018°06'0 0.0
2019-Jul-14 06:59N 59°19' E 018°06'0 0.0
2019-Jul-14 06:29N 59°19' E 018°06'0 0.0
2019-Jul-14 05:59N 59°19' E 018°06'0 0.0
2019-Jul-14 05:29N 59°19' E 018°06'0 0.0
2019-Jul-14 04:59N 59°19' E 018°06'1 3.1
2019-Jul-14 04:31N 59°19' E 018°09'611.1
2019-Jul-14 04:01N 59°23' E 018°17'5 9.8
2019-Jul-14 03:30N 59°22' E 018°27'5 9.8
2019-Jul-14 03:00N 59°26' E 018°24'611.1
2019-Jul-14 02:30N 59°31' E 018°30'5 9.9
2019-Jul-14 01:59N 59°34' E 018°38'611.4
2019-Jul-14 01:29N 59°37' E 018°48'510.5
2019-Jul-14 01:00N 59°40' E 018°56'816.3
2019-Jul-14 00:30N 59°44' E 019°10'816.0
2019-Jul-14 00:00N 59°47' E 019°25'1415.8
2019-Jul-13 23:08N 59°44' E 019°52'818.1
2019-Jul-13 22:40N 59°38' E 020°04'318.2
2019-Jul-13 22:30N 59°36' E 020°08'1116.9
2019-Jul-13 21:50N 59°28' E 020°23'918.8
2019-Jul-13 21:20N 59°26' E 020°41'1618.4
2019-Jul-13 20:27N 59°26' E 021°13'818.7
2019-Jul-13 20:00N 59°26' E 021°30'918.7
2019-Jul-13 19:31N 59°26' E 021°48'918.7
2019-Jul-13 19:00N 59°27' E 022°06'1018.6
2019-Jul-13 18:30N 59°29' E 022°25'918.9
2019-Jul-13 18:00N 59°33' E 022°41'918.5
2019-Jul-13 17:30N 59°35' E 022°59'918.8
2019-Jul-13 17:00N 59°37' E 023°17'918.9
2019-Jul-13 16:30N 59°39' E 023°35'1019.1
2019-Jul-13 16:00N 59°42' E 023°53'918.9
2019-Jul-13 15:31N 59°45' E 024°11'918.9
2019-Jul-13 15:00N 59°48' E 024°29'1018.5
2019-Jul-13 14:28N 59°55' E 024°43'817.9
2019-Jul-13 14:00N 60°01' E 024°55'713.2
2019-Jul-13 13:30N 60°07' E 024°54'2 3.5
2019-Jul-13 12:59N 60°09' E 024°55'0 0.0
2019-Jul-13 12:29N 60°09' E 024°55'0 0.0
2019-Jul-13 11:59N 60°09' E 024°55'0 0.0
2019-Jul-13 11:29N 60°09' E 024°55'0 0.0
2019-Jul-13 10:59N 60°09' E 024°55'0 0.0
2019-Jul-13 10:29N 60°09' E 024°55'0 0.0
2019-Jul-13 09:59N 60°09' E 024°55'0 0.0
2019-Jul-13 09:29N 60°09' E 024°55'0 0.0
2019-Jul-13 08:59N 60°09' E 024°55'0 0.0
2019-Jul-13 08:29N 60°09' E 024°55'0 0.0
2019-Jul-13 07:59N 60°09' E 024°55'0 0.0
2019-Jul-13 07:29N 60°09' E 024°55'0 0.0
2019-Jul-13 06:59N 60°09' E 024°55'0 0.0
2019-Jul-13 06:26N 60°09' E 024°55'0 0.0
2019-Jul-13 05:56N 60°09' E 024°55'0 0.0
2019-Jul-13 05:29N 60°09' E 024°55'0 0.0
2019-Jul-13 04:59N 60°09' E 024°55'0 0.0
2019-Jul-13 04:29N 60°09' E 024°55'0 0.0
2019-Jul-13 03:59N 60°09' E 024°55'0 0.5
2019-Jul-13 03:31N 60°09' E 024°55'3 5.8
2019-Jul-13 03:01N 60°06' E 024°54'714.3
2019-Jul-13 02:30N 59°59' E 024°59'713.2
2019-Jul-13 02:00N 59°58' E 025°12'714.1
2019-Jul-13 01:31N 59°56' E 025°26'714.2
2019-Jul-13 01:00N 59°54' E 025°39'816.6
2019-Jul-13 00:31N 59°56' E 025°55'917.3
2019-Jul-13 00:00N 59°59' E 026°12'715.2
2019-Jul-12 23:30N 60°01' E 026°27'918.1
2019-Jul-12 23:00N 60°01' E 026°45'918.2
2019-Jul-12 22:30N 59°60' E 027°03'918.8
2019-Jul-12 22:00N 60°04' E 027°19'918.5
2019-Jul-12 21:30N 60°09' E 027°35'917.6
2019-Jul-12 21:00N 60°11' E 027°53'918.3
2019-Jul-12 20:30N 60°09' E 028°10'917.3
2019-Jul-12 19:59N 60°05' E 028°25'817.0
2019-Jul-12 19:30N 60°03' E 028°42'917.6
2019-Jul-12 19:00N 60°02' E 028°60'3012.1
2019-Jul-12 16:33N 59°56' E 029°57'111.4
2019-Jul-12 16:30N 59°56' E 029°58'5 9.4
2019-Jul-12 16:00N 59°57' E 030°07'2 4.2
2019-Jul-12 15:30N 59°57' E 030°12'0 0.0
2019-Jul-12 14:58N 59°57' E 030°12'0 0.0
2019-Jul-12 14:25N 59°57' E 030°12'0 0.0
2019-Jul-12 13:58N 59°57' E 030°12'0 0.0
2019-Jul-12 13:28N 59°57' E 030°12'0 0.0
2019-Jul-12 12:58N 59°57' E 030°12'0 0.0
2019-Jul-12 12:28N 59°57' E 030°12'0 0.0
2019-Jul-12 11:55N 59°57' E 030°12'0 0.0
2019-Jul-12 11:28N 59°57' E 030°12'0 0.0
2019-Jul-12 10:55N 59°57' E 030°12'0 0.0
2019-Jul-12 10:28N 59°57' E 030°12'0 0.0
2019-Jul-12 09:55N 59°57' E 030°12'0 0.0
2019-Jul-12 09:28N 59°57' E 030°12'3 5.9
2019-Jul-12 09:00N 59°54' E 030°12'3104.2 240 / 81009.010.8 18.0 17.2
2019-Jul-12 08:58N 59°57' E 030°12'0 0.0
2019-Jul-12 08:25N 59°57' E 030°12'0 0.0
2019-Jul-12 07:58N 59°57' E 030°12'0 0.0
2019-Jul-12 07:28N 59°57' E 030°12'0 0.0
2019-Jul-12 06:58N 59°57' E 030°12'0 0.0
2019-Jul-12 06:28N 59°57' E 030°12'0 0.0
2019-Jul-12 05:58N 59°57' E 030°12'0 0.0
2019-Jul-12 05:28N 59°57' E 030°12'0 0.0
2019-Jul-12 04:58N 59°57' E 030°12'0 0.0
2019-Jul-12 04:28N 59°57' E 030°12'0 0.0
2019-Jul-12 03:58N 59°57' E 030°12'0 0.0
2019-Jul-12 03:28N 59°57' E 030°12'0 0.0
2019-Jul-12 02:58N 59°57' E 030°12'0 0.0
2019-Jul-12 02:28N 59°57' E 030°12'0 0.0
2019-Jul-12 01:25N 59°57' E 030°12'0 0.0
2019-Jul-12 00:55N 59°57' E 030°12'0 0.0
2019-Jul-12 00:28N 59°57' E 030°12'3 5.9
2019-Jul-12 00:00N 59°54' E 030°12'3104.4 200 / 61009.210.8 13.0 17.0
2019-Jul-11 23:58N 59°57' E 030°12'0 0.0
2019-Jul-11 23:28N 59°57' E 030°12'0 0.0
2019-Jul-11 22:58N 59°57' E 030°12'0 0.0
2019-Jul-11 22:28N 59°57' E 030°12'0 0.0
2019-Jul-11 21:58N 59°57' E 030°12'0 0.0
2019-Jul-11 21:28N 59°57' E 030°12'0 0.0
2019-Jul-11 20:58N 59°57' E 030°12'0 0.0
2019-Jul-11 20:28N 59°57' E 030°12'0 0.0
2019-Jul-11 19:58N 59°57' E 030°12'0 0.0
2019-Jul-11 19:28N 59°57' E 030°12'0 0.0
2019-Jul-11 18:58N 59°57' E 030°12'0 0.0
2019-Jul-11 18:25N 59°57' E 030°12'0 0.0
2019-Jul-11 17:58N 59°57' E 030°12'0 0.0
2019-Jul-11 17:28N 59°57' E 030°12'0 0.0
2019-Jul-11 16:58N 59°57' E 030°12'0 0.0
2019-Jul-11 16:28N 59°57' E 030°12'0 0.0
2019-Jul-11 15:58N 59°57' E 030°12'0 0.0
2019-Jul-11 15:28N 59°57' E 030°12'0 0.0
2019-Jul-11 14:55N 59°57' E 030°12'0 0.0
2019-Jul-11 14:28N 59°57' E 030°12'0 0.0
2019-Jul-11 13:58N 59°57' E 030°12'0 0.0
2019-Jul-11 13:25N 59°57' E 030°12'0 0.0
2019-Jul-11 12:55N 59°57' E 030°12'0 0.0
2019-Jul-11 12:28N 59°57' E 030°12'0 0.0
2019-Jul-11 11:58N 59°57' E 030°12'0 0.0
2019-Jul-11 11:28N 59°57' E 030°12'0 0.0
2019-Jul-11 10:58N 59°57' E 030°12'0 0.0
2019-Jul-11 10:28N 59°57' E 030°12'4 8.3
2019-Jul-11 10:00N 59°54' E 030°06'4147.7 360 / 131009.510.8 13.5 16.9
2019-Jul-11 09:58N 59°57' E 030°12'0 0.0
2019-Jul-11 09:28N 59°57' E 030°12'0 0.0
2019-Jul-11 08:58N 59°57' E 030°12'0 0.0
2019-Jul-11 08:28N 59°57' E 030°12'0 0.0
2019-Jul-11 07:58N 59°57' E 030°12'0 0.0
2019-Jul-11 07:28N 59°57' E 030°12'0 0.0
2019-Jul-11 06:58N 59°57' E 030°12'0 0.0
2019-Jul-11 06:28N 59°57' E 030°12'0 0.0
2019-Jul-11 05:58N 59°57' E 030°12'0 0.0
2019-Jul-11 05:28N 59°57' E 030°12'0 0.0
2019-Jul-11 04:58N 59°57' E 030°12'0 0.0
2019-Jul-11 04:25N 59°57' E 030°12'0 0.0
2019-Jul-11 03:58N 59°57' E 030°12'0 0.0
2019-Jul-11 03:28N 59°57' E 030°12'1 2.3
2019-Jul-11 03:01N 59°57' E 030°10'510.3
2019-Jul-11 02:30N 59°55' E 029°60'610.9
2019-Jul-11 02:00N 59°57' E 029°50'3011.6
2019-Jul-10 23:24N 60°02' E 028°50'718.1
2019-Jul-10 23:00N 60°02' E 028°36'816.6
2019-Jul-10 22:31N 60°05' E 028°20'816.5
2019-Jul-10 22:01N 60°09' E 028°05'817.0
2019-Jul-10 21:31N 60°11' E 027°49'1020.3
2019-Jul-10 21:00N 60°06' E 027°30'918.4
2019-Jul-10 20:30N 60°01' E 027°14'917.4
2019-Jul-10 20:01N 59°58' E 026°58'918.7
2019-Jul-10 19:31N 59°60' E 026°40'918.6
2019-Jul-10 19:00N 59°57' E 026°22'918.4
2019-Jul-10 18:30N 59°54' E 026°05'918.6
2019-Jul-10 18:00N 59°52' E 025°47'918.6
2019-Jul-10 17:31N 59°51' E 025°29'918.6
2019-Jul-10 17:00N 59°49' E 025°11'918.9
2019-Jul-10 16:30N 59°45' E 024°54'918.2
2019-Jul-10 16:01N 59°38' E 024°42'815.3
2019-Jul-10 15:31N 59°31' E 024°45'4 6.4
2019-Jul-10 14:55N 59°27' E 024°46'0 0.0
2019-Jul-10 14:28N 59°27' E 024°46'  
Track history (hours):
 
Tides and Currents Weather Stations Pressure Air Temp Water Temp Dewpoint Dewpoint Depression Visibility Wind Speed Wind Dir Waves Ship Positions

Brilliance Of The Seas

Operator: Royal Caribbean Cruises Ltd

Last reported at 2019-Jul-20 14:00 UTC. Time now 2019-Jul-20 14:06 UTC.
Position N 56°00' W 003°23'.

Type: Ship. MMSI: 311361000.

Date/timePositionNaut miles runAvg speedWind from/ knotsBaromVisibWave heightAir tempDewpointWater temp
2019-Jul-20 14:00N 56°00' W 003°23'0 0.0
2019-Jul-20 13:30N 56°00' W 003°23'0 0.1
2019-Jul-20 12:54N 56°00' W 003°22'0 0.0
2019-Jul-20 12:30N 56°00' W 003°22'0 0.0
2019-Jul-20 11:54N 56°00' W 003°22'0 0.0
2019-Jul-20 10:42N 56°00' W 003°22'0 0.0
2019-Jul-20 09:54N 56°00' W 003°22'0 0.0
2019-Jul-20 09:24N 56°00' W 003°22'0 0.0
2019-Jul-20 08:54N 56°00' W 003°22'0 0.0
2019-Jul-20 05:37N 56°00' W 003°22'2 6.2
2019-Jul-20 05:21N 56°01' W 003°20'513.0
2019-Jul-20 04:57N 56°03' W 003°11'613.1
2019-Jul-20 04:31N 56°04' W 003°00'5 9.4
2019-Jul-20 04:01N 56°05' W 002°53'5 9.7
2019-Jul-20 03:30N 56°07' W 002°44'5 9.7
2019-Jul-20 03:01N 56°07' W 002°36'5 9.7
2019-Jul-20 02:31N 56°06' W 002°27'5 9.2
2019-Jul-20 02:01N 56°04' W 002°19'5 9.1
2019-Jul-20 01:26N 56°03' W 002°11'4 9.2
2019-Jul-20 00:59N 56°01' W 002°04'5 9.5
2019-Jul-20 00:31N 55°58' W 001°57'5 9.8
2019-Jul-20 00:01N 55°55' W 001°51'5 9.8
2019-Jul-19 23:30N 55°52' W 001°44'510.0
2019-Jul-19 23:01N 55°49' W 001°37'5 9.6
2019-Jul-19 22:30N 55°46' W 001°30'5 9.8
2019-Jul-19 22:00N 55°43' W 001°24'510.2
2019-Jul-19 21:31N 55°39' W 001°17'5 9.9
2019-Jul-19 20:59N 55°36' W 001°10'12410.2
2019-Jul-19 08:54N 54°16' E 001°34'410.3
2019-Jul-19 08:30N 54°14' E 001°40'510.2
2019-Jul-19 08:00N 54°10' E 001°46'8 9.9
2019-Jul-19 07:09N 54°05' E 001°57'6010.2
2019-Jul-19 01:14N 53°24' E 003°12'611.0
2019-Jul-19 00:43N 53°19' E 003°18'310.8
2019-Jul-19 00:29N 53°17' E 003°20'610.6
2019-Jul-18 23:56N 53°13' E 003°26'510.5
2019-Jul-18 23:29N 53°09' E 003°31'1310.2
2019-Jul-18 22:15N 52°58' E 003°43'2310.0
2019-Jul-18 19:55N 52°39' E 004°03'510.5
2019-Jul-18 19:28N 52°34' E 004°07'510.1
2019-Jul-18 19:00N 52°31' E 004°13'510.3
2019-Jul-18 18:30N 52°30' E 004°21'5 9.7
2019-Jul-18 18:00N 52°29' E 004°28'5 9.7
2019-Jul-18 17:30N 52°28' E 004°36'0 0.5
2019-Jul-18 17:00N 52°28' E 004°37'2 4.5
2019-Jul-18 16:30N 52°28' E 004°40'4 7.7
2019-Jul-18 16:01N 52°26' E 004°46'4 7.8
2019-Jul-18 15:31N 52°25' E 004°52'3 5.4
2019-Jul-18 15:00N 52°23' E 004°55'0 0.0
2019-Jul-18 14:29N 52°23' E 004°55'0 0.0
2019-Jul-18 13:59N 52°23' E 004°55'0 0.0
2019-Jul-18 13:29N 52°23' E 004°55'0 0.0
2019-Jul-18 12:59N 52°23' E 004°55'0 0.0
2019-Jul-18 12:29N 52°23' E 004°55'0 0.0
2019-Jul-18 11:59N 52°23' E 004°55'0 0.0
2019-Jul-18 11:29N 52°23' E 004°55'0 0.0
2019-Jul-18 10:59N 52°23' E 004°55'0 0.0
2019-Jul-18 10:29N 52°23' E 004°55'0 0.0
2019-Jul-18 09:59N 52°23' E 004°55'0 0.0
2019-Jul-18 09:29N 52°23' E 004°55'0 0.0
2019-Jul-18 08:59N 52°23' E 004°55'0 0.0
2019-Jul-18 08:29N 52°23' E 004°55'0 0.0
2019-Jul-18 07:59N 52°23' E 004°55'0 0.0
2019-Jul-18 07:29N 52°23' E 004°55'0 0.0
2019-Jul-18 06:59N 52°23' E 004°55'0 0.0
2019-Jul-18 06:29N 52°23' E 004°55'0 0.0
2019-Jul-18 05:59N 52°23' E 004°55'0 0.0
2019-Jul-18 05:29N 52°23' E 004°55'0 0.0
2019-Jul-18 04:59N 52°23' E 004°55'0 0.0
2019-Jul-18 04:29N 52°23' E 004°55'0 0.0
2019-Jul-18 03:59N 52°23' E 004°55'0 0.0
2019-Jul-18 03:30N 52°23' E 004°55'0 0.6
2019-Jul-18 03:00N 52°23' E 004°55'2 4.5
2019-Jul-18 02:31N 52°24' E 004°53'4 7.6
2019-Jul-18 02:01N 52°26' E 004°47'3 5.9
2019-Jul-18 01:31N 52°26' E 004°42'3 6.8
2019-Jul-18 01:01N 52°28' E 004°37'0 0.8
2019-Jul-18 00:30N 52°28' E 004°36'3 5.2
2019-Jul-18 00:01N 52°28' E 004°32'612.0
2019-Jul-17 23:31N 52°29' E 004°22'510.9
2019-Jul-17 23:01N 52°29' E 004°13'511.0
2019-Jul-17 22:31N 52°33' E 004°07'612.3
2019-Jul-17 22:00N 52°38' E 004°03'11512.7
2019-Jul-17 13:00N 54°24' E 005°18'11414.5 190 / 141016.510.8 16.0
2019-Jul-17 05:08N 56°02' E 006°60'913.8
2019-Jul-17 04:29N 56°10' E 007°08'813.9
2019-Jul-17 03:56N 56°16' E 007°15'713.9
2019-Jul-17 03:26N 56°22' E 007°22'713.9
2019-Jul-17 02:56N 56°28' E 007°28'613.8
2019-Jul-17 02:30N 56°33' E 007°34'713.7
2019-Jul-17 02:01N 56°39' E 007°40'713.8
2019-Jul-17 01:30N 56°45' E 007°47'714.0
2019-Jul-17 01:00N 56°51' E 007°53'4404.4
2019-Jul-17 01:00N 56°48' E 007°48'1122.9 290 / 151016.510.8 13.0
2019-Jul-17 00:30N 56°57' E 008°00'714.7
2019-Jul-17 00:00N 57°03' E 008°07'815.2
2019-Jul-16 23:30N 57°10' E 008°15'714.9
2019-Jul-16 23:00N 57°16' E 008°23'714.8
2019-Jul-16 22:31N 57°20' E 008°33'714.9
2019-Jul-16 22:01N 57°26' E 008°43'714.7
2019-Jul-16 21:30N 57°30' E 008°54'714.6
2019-Jul-16 21:00N 57°34' E 009°05'714.5
2019-Jul-16 20:31N 57°39' E 009°16'714.8
2019-Jul-16 20:00N 57°42' E 009°28'714.7
2019-Jul-16 19:30N 57°45' E 009°41'714.8
2019-Jul-16 19:01N 57°47' E 009°54'715.0
2019-Jul-16 18:31N 57°49' E 010°08'714.4
2019-Jul-16 18:00N 57°50' E 010°21'714.5
2019-Jul-16 17:30N 57°52' E 010°34'713.7
2019-Jul-16 17:00N 57°48' E 010°46'611.4
2019-Jul-16 16:31N 57°43' E 010°43'4 8.5
2019-Jul-16 16:01N 57°43' E 010°35'0 0.4
2019-Jul-16 15:30N 57°43' E 010°35'0 0.0
2019-Jul-16 15:00N 57°43' E 010°35'0 0.0
2019-Jul-16 14:27N 57°43' E 010°35'0 0.0
2019-Jul-16 14:00N 57°43' E 010°35'0 0.0
2019-Jul-16 13:30N 57°43' E 010°35'0 0.0
2019-Jul-16 13:01N 57°43' E 010°35'0 0.0
2019-Jul-16 12:31N 57°43' E 010°35'0 0.0
2019-Jul-16 12:00N 57°43' E 010°35'0 0.0
2019-Jul-16 11:31N 57°43' E 010°35'0 0.0
2019-Jul-16 11:01N 57°43' E 010°35'0 0.0
2019-Jul-16 10:30N 57°43' E 010°35'0 0.0
2019-Jul-16 10:01N 57°43' E 010°35'0 0.0
2019-Jul-16 09:30N 57°43' E 010°35'0 0.0
2019-Jul-16 09:00N 57°43' E 010°35'0 0.0
2019-Jul-16 08:31N 57°43' E 010°35'0 0.0
2019-Jul-16 08:01N 57°43' E 010°35'0 0.0
2019-Jul-16 07:24N 57°43' E 010°35'0 0.0
2019-Jul-16 07:00N 57°43' E 010°35'0 0.0
2019-Jul-16 06:27N 57°43' E 010°35'0 0.0
2019-Jul-16 06:00N 57°43' E 010°35'11 9.5
2019-Jul-16 04:52N 57°40' E 010°55'617.7
2019-Jul-16 04:31N 57°38' E 011°06'918.2
2019-Jul-16 04:00N 57°33' E 011°20'918.2
2019-Jul-16 03:30N 57°25' E 011°30'917.8
2019-Jul-16 03:01N 57°17' E 011°35'917.2
2019-Jul-16 02:30N 57°09' E 011°40'917.7
2019-Jul-16 02:00N 57°00' E 011°46'5417.1
2019-Jul-15 22:51N 56°09' E 011°15'718.7
2019-Jul-15 22:29N 56°04' E 011°08'4416.9
2019-Jul-15 19:51N 55°19' E 011°03'1818.4
2019-Jul-15 18:52N 55°01' E 011°02'718.9
2019-Jul-15 18:30N 54°55' E 010°56'918.6
2019-Jul-15 18:00N 54°46' E 010°53'816.5
2019-Jul-15 17:31N 54°40' E 011°01'918.7
2019-Jul-15 17:01N 54°35' E 011°15'1019.3
2019-Jul-15 16:31N 54°31' E 011°30'1018.5
2019-Jul-15 16:00N 54°27' E 011°45'918.6
2019-Jul-15 15:29N 54°26' E 012°01'816.8
2019-Jul-15 15:00N 54°30' E 012°13'1019.7
2019-Jul-15 14:30N 54°39' E 012°19'1018.8
2019-Jul-15 13:58N 54°45' E 012°33'918.4
2019-Jul-15 13:30N 54°49' E 012°46'918.5
2019-Jul-15 13:00N 54°52' E 013°01'1122.2
2019-Jul-15 12:30N 54°56' E 013°19'1622.6
2019-Jul-15 11:49N 55°02' E 013°44'2521.6
2019-Jul-15 10:39N 55°16' E 014°21'1222.3
2019-Jul-15 10:07N 55°25' E 014°35'1 8.6
2019-Jul-15 10:00N 55°24' E 014°36'3301.8 230 / 20 10.8 17.014.914.0
2019-Jul-15 09:59N 55°27' E 014°39'1122.3
2019-Jul-15 09:30N 55°33' E 014°54'9221.9
2019-Jul-15 05:19N 56°26' E 017°07'1149265.3
2019-Jul-15 01:00N 57°54' W 018°06'11611195.1 260 / 201013.510.8 17.0
2019-Jul-15 00:01N 58°19' E 018°31'622.9
2019-Jul-14 23:47N 58°24' E 018°36'8920.4
2019-Jul-14 19:24N 59°47' E 019°39'917.3
2019-Jul-14 18:53N 59°46' E 019°21'614.6
2019-Jul-14 18:29N 59°44' E 019°11'815.8
2019-Jul-14 17:57N 59°40' E 018°56'410.2
2019-Jul-14 17:30N 59°37' E 018°49'612.0
2019-Jul-14 17:00N 59°34' E 018°38'7 9.8
2019-Jul-14 16:14N 59°29' E 018°27'521.7
2019-Jul-14 16:00N 59°24' E 018°24'3285.8 130 / 31009.510.8 21.7 7.212.7
2019-Jul-14 15:59N 59°27' E 018°24'4 8.9
2019-Jul-14 15:30N 59°22' E 018°27'3 6.2
2019-Jul-14 15:00N 59°22' E 018°21'611.2
2019-Jul-14 14:30N 59°20' E 018°11'3 4.9
2019-Jul-14 13:59N 59°19' E 018°06'0 0.0
2019-Jul-14 13:29N 59°19' E 018°06'0 0.0
2019-Jul-14 12:59N 59°19' E 018°06'0 0.0
2019-Jul-14 12:29N 59°19' E 018°06'0 0.0
2019-Jul-14 11:59N 59°19' E 018°06'0 0.0
2019-Jul-14 11:29N 59°19' E 018°06'0 0.0
2019-Jul-14 10:59N 59°19' E 018°06'0 0.0
2019-Jul-14 10:29N 59°19' E 018°06'0 0.0
2019-Jul-14 09:59N 59°19' E 018°06'0 0.0
2019-Jul-14 09:29N 59°19' E 018°06'0 0.0
2019-Jul-14 08:59N 59°19' E 018°06'0 0.0
2019-Jul-14 08:29N 59°19' E 018°06'0 0.0
2019-Jul-14 07:59N 59°19' E 018°06'0 0.0
2019-Jul-14 07:29N 59°19' E 018°06'0 0.0
2019-Jul-14 06:59N 59°19' E 018°06'0 0.0
2019-Jul-14 06:29N 59°19' E 018°06'0 0.0
2019-Jul-14 05:59N 59°19' E 018°06'0 0.0
2019-Jul-14 05:29N 59°19' E 018°06'0 0.0
2019-Jul-14 04:59N 59°19' E 018°06'1 3.1
2019-Jul-14 04:31N 59°19' E 018°09'611.1
2019-Jul-14 04:01N 59°23' E 018°17'5 9.8
2019-Jul-14 03:30N 59°22' E 018°27'5 9.8
2019-Jul-14 03:00N 59°26' E 018°24'611.1
2019-Jul-14 02:30N 59°31' E 018°30'5 9.9
2019-Jul-14 01:59N 59°34' E 018°38'611.4
2019-Jul-14 01:29N 59°37' E 018°48'510.5
2019-Jul-14 01:00N 59°40' E 018°56'816.3
2019-Jul-14 00:30N 59°44' E 019°10'816.0
2019-Jul-14 00:00N 59°47' E 019°25'1415.8
2019-Jul-13 23:08N 59°44' E 019°52'818.1
2019-Jul-13 22:40N 59°38' E 020°04'318.2
2019-Jul-13 22:30N 59°36' E 020°08'1116.9
2019-Jul-13 21:50N 59°28' E 020°23'918.8
2019-Jul-13 21:20N 59°26' E 020°41'1618.4
2019-Jul-13 20:27N 59°26' E 021°13'818.7
2019-Jul-13 20:00N 59°26' E 021°30'918.7
2019-Jul-13 19:31N 59°26' E 021°48'918.7
2019-Jul-13 19:00N 59°27' E 022°06'1018.6
2019-Jul-13 18:30N 59°29' E 022°25'918.9
2019-Jul-13 18:00N 59°33' E 022°41'918.5
2019-Jul-13 17:30N 59°35' E 022°59'918.8
2019-Jul-13 17:00N 59°37' E 023°17'918.9
2019-Jul-13 16:30N 59°39' E 023°35'1019.1
2019-Jul-13 16:00N 59°42' E 023°53'918.9
2019-Jul-13 15:31N 59°45' E 024°11'918.9
2019-Jul-13 15:00N 59°48' E 024°29'1018.5
2019-Jul-13 14:28N 59°55' E 024°43'817.9
2019-Jul-13 14:00N 60°01' E 024°55'713.2
2019-Jul-13 13:30N 60°07' E 024°54'2 3.5
2019-Jul-13 12:59N 60°09' E 024°55'0 0.0
2019-Jul-13 12:29N 60°09' E 024°55'0 0.0
2019-Jul-13 11:59N 60°09' E 024°55'0 0.0
2019-Jul-13 11:29N 60°09' E 024°55'0 0.0
2019-Jul-13 10:59N 60°09' E 024°55'0 0.0
2019-Jul-13 10:29N 60°09' E 024°55'0 0.0
2019-Jul-13 09:59N 60°09' E 024°55'0 0.0
2019-Jul-13 09:29N 60°09' E 024°55'0 0.0
2019-Jul-13 08:59N 60°09' E 024°55'0 0.0
2019-Jul-13 08:29N 60°09' E 024°55'0 0.0
2019-Jul-13 07:59N 60°09' E 024°55'0 0.0
2019-Jul-13 07:29N 60°09' E 024°55'0 0.0
2019-Jul-13 06:59N 60°09' E 024°55'0 0.0
2019-Jul-13 06:26N 60°09' E 024°55'0 0.0
2019-Jul-13 05:56N 60°09' E 024°55'0 0.0
2019-Jul-13 05:29N 60°09' E 024°55'0 0.0
2019-Jul-13 04:59N 60°09' E 024°55'0 0.0
2019-Jul-13 04:29N 60°09' E 024°55'0 0.0
2019-Jul-13 03:59N 60°09' E 024°55'0 0.5
2019-Jul-13 03:31N 60°09' E 024°55'3 5.8
2019-Jul-13 03:01N 60°06' E 024°54'714.3
2019-Jul-13 02:30N 59°59' E 024°59'713.2
2019-Jul-13 02:00N 59°58' E 025°12'714.1
2019-Jul-13 01:31N 59°56' E 025°26'714.2
2019-Jul-13 01:00N 59°54' E 025°39'816.6
2019-Jul-13 00:31N 59°56' E 025°55'917.3
2019-Jul-13 00:00N 59°59' E 026°12'715.2
2019-Jul-12 23:30N 60°01' E 026°27'918.1
2019-Jul-12 23:00N 60°01' E 026°45'918.2
2019-Jul-12 22:30N 59°60' E 027°03'918.8
2019-Jul-12 22:00N 60°04' E 027°19'918.5
2019-Jul-12 21:30N 60°09' E 027°35'917.6
2019-Jul-12 21:00N 60°11' E 027°53'918.3
2019-Jul-12 20:30N 60°09' E 028°10'917.3
2019-Jul-12 19:59N 60°05' E 028°25'817.0
2019-Jul-12 19:30N 60°03' E 028°42'917.6
2019-Jul-12 19:00N 60°02' E 028°60'3012.1
2019-Jul-12 16:33N 59°56' E 029°57'111.4
2019-Jul-12 16:30N 59°56' E 029°58'5 9.4
2019-Jul-12 16:00N 59°57' E 030°07'2 4.2
2019-Jul-12 15:30N 59°57' E 030°12'0 0.0
2019-Jul-12 14:58N 59°57' E 030°12'0 0.0
2019-Jul-12 14:25N 59°57' E 030°12'0 0.0
2019-Jul-12 13:58N 59°57' E 030°12'0 0.0
2019-Jul-12 13:28N 59°57' E 030°12'0 0.0
2019-Jul-12 12:58N 59°57' E 030°12'0 0.0
2019-Jul-12 12:28N 59°57' E 030°12'0 0.0
2019-Jul-12 11:55N 59°57' E 030°12'0 0.0
2019-Jul-12 11:28N 59°57' E 030°12'0 0.0
2019-Jul-12 10:55N 59°57' E 030°12'0 0.0
2019-Jul-12 10:28N 59°57' E 030°12'0 0.0
2019-Jul-12 09:55N 59°57' E 030°12'0 0.0
2019-Jul-12 09:28N 59°57' E 030°12'3 5.9
2019-Jul-12 09:00N 59°54' E 030°12'3104.2 240 / 81009.010.8 18.0 17.2
2019-Jul-12 08:58N 59°57' E 030°12'0 0.0
2019-Jul-12 08:25N 59°57' E 030°12'0 0.0
2019-Jul-12 07:58N 59°57' E 030°12'0 0.0
2019-Jul-12 07:28N 59°57' E 030°12'0 0.0
2019-Jul-12 06:58N 59°57' E 030°12'0 0.0
2019-Jul-12 06:28N 59°57' E 030°12'0 0.0
2019-Jul-12 05:58N 59°57' E 030°12'0 0.0
2019-Jul-12 05:28N 59°57' E 030°12'0 0.0
2019-Jul-12 04:58N 59°57' E 030°12'0 0.0
2019-Jul-12 04:28N 59°57' E 030°12'0 0.0
2019-Jul-12 03:58N 59°57' E 030°12'0 0.0
2019-Jul-12 03:28N 59°57' E 030°12'0 0.0
2019-Jul-12 02:58N 59°57' E 030°12'0 0.0
2019-Jul-12 02:28N 59°57' E 030°12'0 0.0
2019-Jul-12 01:25N 59°57' E 030°12'0 0.0
2019-Jul-12 00:55N 59°57' E 030°12'0 0.0
2019-Jul-12 00:28N 59°57' E 030°12'3 5.9
2019-Jul-12 00:00N 59°54' E 030°12'3104.4 200 / 61009.210.8 13.0 17.0
2019-Jul-11 23:58N 59°57' E 030°12'0 0.0
2019-Jul-11 23:28N 59°57' E 030°12'0 0.0
2019-Jul-11 22:58N 59°57' E 030°12'0 0.0
2019-Jul-11 22:28N 59°57' E 030°12'0 0.0
2019-Jul-11 21:58N 59°57' E 030°12'0 0.0
2019-Jul-11 21:28N 59°57' E 030°12'0 0.0
2019-Jul-11 20:58N 59°57' E 030°12'0 0.0
2019-Jul-11 20:28N 59°57' E 030°12'0 0.0
2019-Jul-11 19:58N 59°57' E 030°12'0 0.0
2019-Jul-11 19:28N 59°57' E 030°12'0 0.0
2019-Jul-11 18:58N 59°57' E 030°12'0 0.0
2019-Jul-11 18:25N 59°57' E 030°12'0 0.0
2019-Jul-11 17:58N 59°57' E 030°12'0 0.0
2019-Jul-11 17:28N 59°57' E 030°12'0 0.0
2019-Jul-11 16:58N 59°57' E 030°12'0 0.0
2019-Jul-11 16:28N 59°57' E 030°12'0 0.0
2019-Jul-11 15:58N 59°57' E 030°12'0 0.0
2019-Jul-11 15:28N 59°57' E 030°12'0 0.0
2019-Jul-11 14:55N 59°57' E 030°12'0 0.0
2019-Jul-11 14:28N 59°57' E 030°12'0 0.0
2019-Jul-11 13:58N 59°57' E 030°12'0 0.0
2019-Jul-11 13:25N 59°57' E 030°12'0 0.0
2019-Jul-11 12:55N 59°57' E 030°12'0 0.0
2019-Jul-11 12:28N 59°57' E 030°12'0 0.0
2019-Jul-11 11:58N 59°57' E 030°12'0 0.0
2019-Jul-11 11:28N 59°57' E 030°12'0 0.0
2019-Jul-11 10:58N 59°57' E 030°12'0 0.0
2019-Jul-11 10:28N 59°57' E 030°12'4 8.3
2019-Jul-11 10:00N 59°54' E 030°06'4147.7 360 / 131009.510.8 13.5 16.9
2019-Jul-11 09:58N 59°57' E 030°12'0 0.0
2019-Jul-11 09:28N 59°57' E 030°12'0 0.0
2019-Jul-11 08:58N 59°57' E 030°12'0 0.0
2019-Jul-11 08:28N 59°57' E 030°12'0 0.0
2019-Jul-11 07:58N 59°57' E 030°12'0 0.0
2019-Jul-11 07:28N 59°57' E 030°12'0 0.0
2019-Jul-11 06:58N 59°57' E 030°12'0 0.0
2019-Jul-11 06:28N 59°57' E 030°12'0 0.0
2019-Jul-11 05:58N 59°57' E 030°12'0 0.0
2019-Jul-11 05:28N 59°57' E 030°12'0 0.0
2019-Jul-11 04:58N 59°57' E 030°12'0 0.0
2019-Jul-11 04:25N 59°57' E 030°12'0 0.0
2019-Jul-11 03:58N 59°57' E 030°12'0 0.0
2019-Jul-11 03:28N 59°57' E 030°12'1 2.3
2019-Jul-11 03:01N 59°57' E 030°10'510.3
2019-Jul-11 02:30N 59°55' E 029°60'610.9
2019-Jul-11 02:00N 59°57' E 029°50'3011.6
2019-Jul-10 23:24N 60°02' E 028°50'718.1
2019-Jul-10 23:00N 60°02' E 028°36'816.6
2019-Jul-10 22:31N 60°05' E 028°20'816.5
2019-Jul-10 22:01N 60°09' E 028°05'817.0
2019-Jul-10 21:31N 60°11' E 027°49'1020.3
2019-Jul-10 21:00N 60°06' E 027°30'918.4
2019-Jul-10 20:30N 60°01' E 027°14'917.4
2019-Jul-10 20:01N 59°58' E 026°58'918.7
2019-Jul-10 19:31N 59°60' E 026°40'918.6
2019-Jul-10 19:00N 59°57' E 026°22'918.4
2019-Jul-10 18:30N 59°54' E 026°05'918.6
2019-Jul-10 18:00N 59°52' E 025°47'918.6
2019-Jul-10 17:31N 59°51' E 025°29'918.6
2019-Jul-10 17:00N 59°49' E 025°11'918.9
2019-Jul-10 16:30N 59°45' E 024°54'918.2
2019-Jul-10 16:01N 59°38' E 024°42'815.3
2019-Jul-10 15:31N 59°31' E 024°45'4 6.4
2019-Jul-10 14:55N 59°27' E 024°46'0 0.0
2019-Jul-10 14:28N 59°27' E 024°46'  

Dump ship's entire track history